Time;durP1;ratioP1;P1;durP2;ratioP2;P2;SDS_P1;SDS_P2;PMS_P1;PMS_P2;Temp;Humidity;BMP_temperature;BMP_pressure;BME280_temperature;BME280_humidity;BME280_pressure;Samples;Min_cycle;Max_cycle;Signal;HPM_P1;HPM_P2
2021/06/27 00:01:40;;;;;;;19.67;17.90;;;19.50;1.00;;;;;;5071614;28;20816;-57
2021/06/27 00:04:05;;;;;;;19.37;17.47;;;19.60;1.00;;;;;;5071568;28;20180;-58
2021/06/27 00:06:31;;;;;;;18.83;17.13;;;19.60;1.00;;;;;;5071291;28;20194;-58
2021/06/27 00:08:57;;;;;;;19.53;17.47;;;19.50;1.00;;;;;;5070651;28;20267;-59
2021/06/27 00:11:24;;;;;;;19.50;17.67;;;19.50;1.00;;;;;;5071415;28;20199;-59
2021/06/27 00:13:50;;;;;;;18.63;16.93;;;19.50;1.00;;;;;;5071477;28;20175;-59
2021/06/27 00:16:18;;;;;;;19.83;17.93;;;19.50;1.00;;;;;;5070733;28;20445;-59
2021/06/27 00:18:44;;;;;;;19.57;17.77;;;19.50;1.00;;;;;;5070621;28;20472;-57
2021/06/27 00:21:12;;;;;;;18.47;16.57;;;19.40;1.00;;;;;;5071037;28;20537;-58
2021/06/27 00:23:41;;;;;;;19.27;17.57;;;19.40;1.00;;;;;;5069588;28;20648;-59
2021/06/27 00:26:08;;;;;;;18.40;16.60;;;19.40;1.00;;;;;;5069251;28;20794;-57
2021/06/27 00:28:35;;;;;;;18.33;16.77;;;19.40;1.00;;;;;;5071168;28;20898;-60
2021/06/27 00:31:03;;;;;;;18.60;16.77;;;19.30;1.00;;;;;;5070954;28;20795;-59
2021/06/27 00:33:29;;;;;;;18.10;16.50;;;19.30;1.00;;;;;;5070448;28;20433;-57
2021/06/27 00:35:55;;;;;;;18.57;16.70;;;20.00;1.00;;;;;;5070997;28;20979;-59
2021/06/27 00:38:21;;;;;;;19.83;18.03;;;19.20;1.00;;;;;;5070340;28;20472;-58
2021/06/27 00:40:47;;;;;;;17.60;16.10;;;19.20;1.00;;;;;;5069482;28;20468;-58
2021/06/27 00:43:13;;;;;;;18.20;16.40;;;19.20;1.00;;;;;;5069135;28;21015;-58
2021/06/27 00:45:40;;;;;;;18.17;16.40;;;19.20;1.00;;;;;;5070297;28;20201;-57
2021/06/27 00:48:07;;;;;;;17.53;15.73;;;19.10;1.00;;;;;;5070943;28;20774;-58
2021/06/27 00:50:40;;;;;;;18.17;16.33;;;19.10;1.00;;;;;;5070864;28;20471;-58
2021/06/27 00:53:06;;;;;;;17.93;16.43;;;19.00;1.00;;;;;;5070664;28;20437;-58
2021/06/27 00:55:32;;;;;;;19.60;17.60;;;19.10;1.00;;;;;;5070092;28;20441;-57
2021/06/27 00:57:58;;;;;;;19.60;17.77;;;18.90;1.00;;;;;;5070669;28;20464;-57
2021/06/27 01:00:26;;;;;;;19.37;17.60;;;18.90;1.00;;;;;;5069203;28;20202;-58
2021/06/27 01:02:53;;;;;;;17.83;16.23;;;18.80;1.00;;;;;;5070992;28;20438;-58
2021/06/27 01:05:25;;;;;;;19.33;17.40;;;18.70;1.00;;;;;;5070476;28;20461;-57
2021/06/27 01:07:52;;;;;;;17.97;16.27;;;18.80;1.00;;;;;;5070848;28;20422;-57
2021/06/27 01:10:18;;;;;;;18.03;16.40;;;18.80;1.00;;;;;;5068847;28;20437;-57
2021/06/27 01:12:44;;;;;;;18.90;17.00;;;18.80;1.00;;;;;;5068808;28;20791;-58
2021/06/27 01:15:11;;;;;;;19.20;17.23;;;18.90;1.00;;;;;;5069859;28;20731;-58
2021/06/27 01:17:38;;;;;;;18.17;16.43;;;18.70;1.00;;;;;;5069613;28;20459;-59
2021/06/27 01:20:32;;;;;;;17.73;16.10;;;18.70;1.00;;;;;;5070440;28;20468;-57
2021/06/27 01:22:59;;;;;;;18.60;16.83;;;18.70;1.00;;;;;;5067084;28;20957;-58
2021/06/27 01:25:32;;;;;;;19.40;17.60;;;18.70;1.00;;;;;;5069095;28;20461;-58
2021/06/27 01:27:59;;;;;;;17.30;15.67;;;18.60;1.00;;;;;;5069954;28;20429;-58
2021/06/27 01:30:26;;;;;;;19.20;17.20;;;18.60;1.00;;;;;;5069983;28;20472;-59
2021/06/27 01:32:55;;;;;;;18.73;17.07;;;18.70;1.00;;;;;;5070079;28;20449;-57
2021/06/27 01:35:23;;;;;;;18.87;17.13;;;18.50;1.00;;;;;;5069674;28;20446;-58
2021/06/27 01:37:52;;;;;;;18.17;16.27;;;18.60;1.00;;;;;;5069825;28;20457;-58
2021/06/27 01:40:19;;;;;;;18.87;16.97;;;18.50;1.00;;;;;;5070122;28;20442;-57
2021/06/27 01:42:45;;;;;;;19.23;17.43;;;20.00;1.00;;;;;;5069208;28;20480;-59
2021/06/27 01:45:13;;;;;;;18.73;16.83;;;18.50;1.00;;;;;;5069692;28;20460;-58
2021/06/27 01:47:39;;;;;;;17.90;16.20;;;18.50;1.00;;;;;;5069039;28;20469;-57
2021/06/27 01:50:07;;;;;;;21.40;16.90;;;18.50;1.00;;;;;;5070028;28;20473;-58
2021/06/27 01:52:33;;;;;;;18.83;17.13;;;18.50;1.00;;;;;;5068063;28;20283;-57
2021/06/27 01:54:59;;;;;;;19.90;18.00;;;18.40;1.00;;;;;;5069441;28;20517;-58
2021/06/27 01:57:24;;;;;;;19.83;17.73;;;18.40;1.00;;;;;;5070021;28;20439;-59
2021/06/27 01:59:50;;;;;;;18.57;16.60;;;18.40;1.00;;;;;;5069366;28;20702;-57
2021/06/27 02:02:17;;;;;;;19.10;17.20;;;18.30;1.00;;;;;;5070060;28;20175;-56
2021/06/27 02:04:43;;;;;;;18.03;16.40;;;18.20;1.00;;;;;;5068620;28;20199;-57
2021/06/27 02:07:09;;;;;;;19.53;17.40;;;18.20;1.00;;;;;;5069557;28;20541;-57
2021/06/27 02:09:35;;;;;;;18.97;17.27;;;18.10;1.00;;;;;;5068910;28;20484;-57
2021/06/27 02:12:01;;;;;;;19.13;17.23;;;18.10;1.00;;;;;;5069627;28;20425;-57
2021/06/27 02:14:26;;;;;;;18.20;16.30;;;18.10;1.00;;;;;;5072984;28;20217;-57
2021/06/27 02:16:53;;;;;;;18.80;17.10;;;18.10;1.00;;;;;;5073525;28;20277;-56
2021/06/27 02:19:18;;;;;;;16.70;15.37;;;18.20;1.00;;;;;;5072363;28;20188;-57
2021/06/27 02:21:44;;;;;;;17.17;15.60;;;18.20;1.00;;;;;;5073092;28;20852;-58
2021/06/27 02:24:10;;;;;;;17.93;16.30;;;18.20;1.00;;;;;;5072747;28;20501;-57
2021/06/27 02:26:36;;;;;;;18.07;16.27;;;18.10;1.00;;;;;;5072194;28;20207;-57
2021/06/27 02:29:03;;;;;;;17.43;15.73;;;16.70;1.00;;;;;;5072511;28;20218;-57
2021/06/27 02:31:31;;;;;;;17.20;15.70;;;18.10;1.00;;;;;;5072690;28;20449;-58
2021/06/27 02:33:57;;;;;;;16.10;14.70;;;18.10;1.00;;;;;;5072865;28;20437;-59
2021/06/27 02:36:23;;;;;;;17.70;16.00;;;18.10;1.00;;;;;;5073659;28;20488;-56
2021/06/27 02:38:49;;;;;;;15.97;14.57;;;18.00;1.00;;;;;;5073094;28;20950;-57
2021/06/27 02:41:15;;;;;;;16.87;15.17;;;17.90;1.00;;;;;;5072402;28;20480;-58
2021/06/27 02:43:40;;;;;;;16.17;14.67;;;17.80;1.00;;;;;;5072498;28;20183;-58
2021/06/27 02:46:07;;;;;;;17.03;15.33;;;17.90;1.00;;;;;;5072592;28;20691;-57
2021/06/27 02:48:33;;;;;;;17.23;15.53;;;17.90;1.00;;;;;;5071109;28;20275;-56
2021/06/27 02:50:59;;;;;;;18.20;16.23;;;17.90;1.00;;;;;;5071778;28;20847;-57
2021/06/27 02:53:25;;;;;;;17.30;15.57;;;17.90;1.00;;;;;;5072526;28;20198;-58
2021/06/27 02:56:07;;;;;;;18.33;16.63;;;17.80;1.00;;;;;;5072986;28;20444;-57
2021/06/27 02:58:34;;;;;;;16.73;15.17;;;17.80;1.00;;;;;;5072443;28;20488;-58
2021/06/27 03:01:00;;;;;;;16.23;14.73;;;17.70;1.00;;;;;;5072661;28;20445;-58
2021/06/27 03:03:25;;;;;;;16.90;15.00;;;17.60;1.00;;;;;;5073269;28;20434;-58
2021/06/27 03:05:50;;;;;;;18.03;16.23;;;17.60;1.00;;;;;;5072499;28;20567;-57
2021/06/27 03:08:16;;;;;;;18.03;15.67;;;17.70;1.00;;;;;;5070364;28;20191;-58
2021/06/27 03:10:42;;;;;;;17.10;15.53;;;17.70;1.00;;;;;;5072572;28;20191;-57
2021/06/27 03:13:07;;;;;;;18.23;16.17;;;17.70;1.00;;;;;;5072533;28;20706;-58
2021/06/27 03:15:33;;;;;;;15.77;14.27;;;17.70;1.00;;;;;;5072216;28;20191;-57
2021/06/27 03:17:58;;;;;;;16.83;15.03;;;17.70;1.00;;;;;;5072390;28;20608;-58
2021/06/27 03:20:23;;;;;;;16.43;14.93;;;17.60;1.00;;;;;;5071795;28;20654;-58
2021/06/27 03:22:49;;;;;;;18.07;16.27;;;17.60;1.00;;;;;;5068846;28;20187;-57
2021/06/27 03:25:15;;;;;;;16.73;13.93;;;17.50;1.00;;;;;;5071674;28;20203;-57
2021/06/27 03:27:41;;;;;;;17.10;15.40;;;17.60;1.00;;;;;;5072260;28;20286;-57
2021/06/27 03:30:07;;;;;;;18.40;15.03;;;17.70;1.00;;;;;;5072146;28;20580;-58
2021/06/27 03:32:34;;;;;;;16.80;14.93;;;17.80;1.00;;;;;;5071228;28;20249;-58
2021/06/27 03:34:59;;;;;;;16.53;14.77;;;18.00;1.00;;;;;;5072220;28;20444;-57
2021/06/27 03:37:25;;;;;;;15.10;13.80;;;18.00;1.00;;;;;;5071899;28;20528;-58
2021/06/27 03:39:51;;;;;;;15.60;14.30;;;18.10;1.00;;;;;;5072087;28;20191;-58
2021/06/27 03:42:17;;;;;;;15.37;13.97;;;19.70;1.00;;;;;;5070277;28;20645;-57
2021/06/27 03:44:42;;;;;;;14.63;13.30;;;18.20;1.00;;;;;;5071445;28;20502;-57
2021/06/27 03:47:08;;;;;;;13.50;12.03;;;18.30;1.00;;;;;;5070424;28;20270;-57
2021/06/27 03:49:33;;;;;;;13.43;12.23;;;18.30;1.00;;;;;;5072063;28;20563;-59
2021/06/27 03:51:59;;;;;;;13.53;12.37;;;18.30;1.00;;;;;;5071312;28;20692;-58
2021/06/27 03:54:24;;;;;;;14.20;12.87;;;18.30;1.00;;;;;;5072314;28;20275;-58
2021/06/27 03:56:50;;;;;;;15.53;14.03;;;18.40;1.00;;;;;;5071615;28;20187;-58
2021/06/27 03:59:15;;;;;;;14.43;13.03;;;18.30;1.00;;;;;;5071784;28;20187;-57
2021/06/27 04:01:41;;;;;;;15.17;13.77;;;18.30;1.00;;;;;;5069854;28;20179;-56
2021/06/27 04:04:07;;;;;;;15.20;13.80;;;18.30;1.00;;;;;;5071298;28;20214;-57
2021/06/27 04:06:32;;;;;;;15.47;14.03;;;18.20;1.00;;;;;;5071850;28;20231;-58
2021/06/27 04:08:58;;;;;;;14.80;13.50;;;18.10;1.00;;;;;;5071400;28;20215;-57
2021/06/27 04:11:23;;;;;;;14.20;13.00;;;18.00;1.00;;;;;;5071780;28;20191;-58
2021/06/27 04:13:49;;;;;;;15.90;14.40;;;18.00;1.00;;;;;;5069753;28;20595;-57
2021/06/27 04:16:14;;;;;;;16.10;14.53;;;18.00;1.00;;;;;;5071440;28;20651;-57
2021/06/27 04:18:40;;;;;;;15.20;13.70;;;18.10;1.00;;;;;;5071387;28;20317;-58
2021/06/27 04:21:07;;;;;;;14.47;13.27;;;18.10;1.00;;;;;;5071319;28;20214;-56
2021/06/27 04:23:34;;;;;;;15.93;14.43;;;18.10;1.00;;;;;;5070844;28;20445;-57
2021/06/27 04:26:01;;;;;;;17.53;15.83;;;18.20;1.00;;;;;;5071399;28;20465;-58
2021/06/27 04:28:27;;;;;;;16.67;15.07;;;18.20;1.00;;;;;;5070013;28;20452;-57
2021/06/27 04:30:52;;;;;;;17.03;15.43;;;18.20;1.00;;;;;;5069642;28;20451;-56
2021/06/27 04:33:18;;;;;;;16.73;15.20;;;18.20;1.00;;;;;;5070338;28;20554;-58
2021/06/27 04:35:44;;;;;;;17.10;15.40;;;18.30;1.00;;;;;;5070340;28;20175;-57
2021/06/27 04:38:14;;;;;;;16.40;14.80;;;18.30;1.00;;;;;;5070627;28;20191;-58
2021/06/27 04:40:40;;;;;;;16.17;14.67;;;18.30;1.00;;;;;;5071270;28;20187;-58
2021/06/27 04:43:06;;;;;;;15.97;14.40;;;18.30;1.00;;;;;;5069000;28;20522;-57
2021/06/27 04:45:33;;;;;;;16.10;14.60;;;18.40;1.00;;;;;;5070895;28;20472;-57
2021/06/27 04:48:01;;;;;;;17.13;15.33;;;18.50;1.00;;;;;;5070626;28;21020;-57
2021/06/27 04:50:27;;;;;;;15.50;14.00;;;18.60;1.00;;;;;;5070761;28;20445;-57
2021/06/27 04:52:52;;;;;;;16.67;15.20;;;18.70;1.00;;;;;;5070443;28;20699;-58
2021/06/27 04:55:19;;;;;;;18.03;16.10;;;18.80;1.00;;;;;;5069314;28;20226;-57
2021/06/27 04:57:45;;;;;;;17.40;15.80;;;18.80;1.00;;;;;;5070767;28;20198;-58
2021/06/27 05:00:12;;;;;;;16.37;14.90;;;18.90;1.00;;;;;;5070276;28;20478;-58
2021/06/27 05:02:37;;;;;;;16.27;14.80;;;18.90;1.00;;;;;;5068917;28;20450;-57
2021/06/27 05:05:04;;;;;;;15.83;14.40;;;18.90;1.00;;;;;;5070396;28;20495;-58
2021/06/27 05:07:29;;;;;;;16.33;14.83;;;18.90;1.00;;;;;;5070553;28;20635;-57
2021/06/27 05:09:57;;;;;;;15.73;14.43;;;19.00;1.00;;;;;;5070437;28;20472;-57
2021/06/27 05:12:24;;;;;;;14.63;13.40;;;19.00;1.00;;;;;;5070108;28;20202;-56
2021/06/27 05:14:49;;;;;;;15.47;14.03;;;19.20;1.00;;;;;;5069267;28;20794;-57
2021/06/27 05:17:15;;;;;;;13.80;12.70;;;19.20;1.00;;;;;;5069940;28;20450;-57
2021/06/27 05:19:40;;;;;;;14.87;13.47;;;19.30;1.00;;;;;;5070663;28;20236;-59
2021/06/27 05:22:06;;;;;;;15.00;13.60;;;19.40;1.00;;;;;;5070234;28;20191;-58
2021/06/27 05:24:32;;;;;;;15.60;14.10;;;19.50;1.00;;;;;;5070034;28;20653;-58
2021/06/27 05:26:57;;;;;;;15.40;14.07;;;19.50;1.00;;;;;;5070319;28;20184;-58
2021/06/27 05:29:23;;;;;;;14.00;12.70;;;19.60;1.00;;;;;;5069938;28;20219;-58
2021/06/27 05:31:48;;;;;;;13.97;12.67;;;19.70;1.00;;;;;;5069837;28;20183;-57
2021/06/27 05:34:14;;;;;;;15.13;13.73;;;19.80;1.00;;;;;;5069904;28;20633;-57
2021/06/27 05:36:39;;;;;;;15.07;13.67;;;20.00;1.00;;;;;;5068922;28;20186;-57
2021/06/27 05:39:09;;;;;;;15.33;14.13;;;20.10;1.00;;;;;;5070241;28;20190;-57
2021/06/27 05:41:36;;;;;;;14.43;13.27;;;20.20;1.00;;;;;;5069036;28;20329;-61
2021/06/27 05:44:03;;;;;;;14.27;12.97;;;20.00;1.00;;;;;;5070038;28;20444;-58
2021/06/27 05:46:29;;;;;;;18.67;14.60;;;20.10;1.00;;;;;;5068861;28;21955;-58
2021/06/27 05:48:55;;;;;;;14.90;13.67;;;20.20;1.00;;;;;;5068862;28;20519;-59
2021/06/27 05:51:20;;;;;;;13.70;12.53;;;20.30;1.00;;;;;;5070008;28;20443;-57
2021/06/27 05:53:46;;;;;;;14.43;13.13;;;20.20;1.00;;;;;;5069840;28;20187;-57
2021/06/27 05:56:14;;;;;;;13.83;12.53;;;20.30;1.00;;;;;;5069954;28;20183;-57
2021/06/27 05:58:43;;;;;;;14.47;12.93;;;20.40;1.00;;;;;;5068426;28;20533;-58
2021/06/27 06:01:14;;;;;;;14.73;13.43;;;20.50;1.00;;;;;;5069648;28;20455;-58
2021/06/27 06:03:41;;;;;;;13.80;12.50;;;20.50;1.00;;;;;;5068570;28;20409;-57
2021/06/27 06:06:10;;;;;;;14.63;13.33;;;20.50;1.00;;;;;;5069691;28;20477;-60
2021/06/27 06:08:35;;;;;;;14.37;13.17;;;20.50;1.00;;;;;;5068847;28;20442;-59
2021/06/27 06:11:01;;;;;;;12.90;11.80;;;20.70;1.00;;;;;;5069550;28;20467;-57
2021/06/27 06:13:26;;;;;;;13.50;12.37;;;20.80;1.00;;;;;;5069222;28;20191;-58
2021/06/27 06:15:52;;;;;;;13.80;12.70;;;20.90;1.00;;;;;;5068876;28;20203;-57
2021/06/27 06:18:17;;;;;;;13.40;12.30;;;21.00;1.00;;;;;;5069645;28;20641;-58
2021/06/27 06:20:43;;;;;;;14.60;13.50;;;21.10;1.00;;;;;;5069097;28;20191;-57
2021/06/27 06:23:09;;;;;;;13.57;12.40;;;21.10;1.00;;;;;;5069647;28;20192;-57
2021/06/27 06:25:34;;;;;;;13.10;12.00;;;21.10;1.00;;;;;;5068841;28;20668;-57
2021/06/27 06:28:00;;;;;;;13.23;12.13;;;21.00;1.00;;;;;;5069446;28;20222;-57
2021/06/27 06:30:26;;;;;;;12.67;11.57;;;21.00;1.00;;;;;;5069354;28;20611;-58
2021/06/27 06:32:51;;;;;;;13.67;12.57;;;21.10;1.00;;;;;;5068029;28;20586;-56
2021/06/27 06:35:17;;;;;;;12.37;11.43;;;21.20;1.00;;;;;;5068352;28;20549;-57
2021/06/27 06:37:42;;;;;;;13.77;12.67;;;21.30;1.00;;;;;;5068723;28;20237;-57
2021/06/27 06:40:09;;;;;;;13.20;12.10;;;21.40;1.00;;;;;;5069044;28;20244;-59
2021/06/27 06:42:34;;;;;;;13.23;12.03;;;21.50;1.00;;;;;;5068709;28;20275;-58
2021/06/27 06:45:00;;;;;;;14.13;12.70;;;21.70;1.00;;;;;;5068528;28;20972;-59
2021/06/27 06:47:25;;;;;;;13.23;12.13;;;21.90;1.00;;;;;;5068473;28;20183;-58
2021/06/27 06:49:51;;;;;;;13.37;12.37;;;21.80;1.00;;;;;;5068692;28;20604;-58
2021/06/27 06:52:17;;;;;;;12.83;11.73;;;21.90;1.00;;;;;;5067333;28;20728;-58
2021/06/27 06:54:43;;;;;;;12.07;11.07;;;22.00;1.00;;;;;;5068972;28;20187;-59
2021/06/27 06:57:09;;;;;;;13.60;12.53;;;22.00;1.00;;;;;;5068981;28;20771;-57
2021/06/27 06:59:34;;;;;;;13.97;12.77;;;22.30;1.00;;;;;;5073073;28;20274;-59
2021/06/27 07:02:00;;;;;;;13.43;12.33;;;22.60;1.00;;;;;;5072185;28;20183;-59
2021/06/27 07:04:26;;;;;;;13.60;12.40;;;22.80;1.00;;;;;;5072203;28;20195;-58
2021/06/27 07:06:51;;;;;;;12.93;11.93;;;23.00;1.00;;;;;;5072209;28;20183;-59
2021/06/27 07:09:17;;;;;;;14.70;13.30;;;23.10;1.00;;;;;;5072582;28;20620;-57
2021/06/27 07:11:43;;;;;;;12.57;11.57;;;23.30;1.00;;;;;;5072379;28;20241;-59
2021/06/27 07:14:09;;;;;;;13.17;12.10;;;23.40;1.00;;;;;;5072560;28;20595;-58
2021/06/27 07:16:34;;;;;;;12.83;11.83;;;23.60;1.00;;;;;;5072136;28;20501;-59
2021/06/27 07:19:00;;;;;;;12.90;11.90;;;23.70;1.00;;;;;;5072229;28;20195;-60
2021/06/27 07:21:27;;;;;;;12.53;11.53;;;24.00;1.00;;;;;;5072191;28;20183;-58
2021/06/27 07:23:52;;;;;;;13.37;12.37;;;24.10;1.00;;;;;;5070658;28;20545;-60
2021/06/27 07:26:18;;;;;;;14.40;13.20;;;24.20;1.00;;;;;;5072081;28;20532;-58
2021/06/27 07:28:44;;;;;;;14.20;12.77;;;24.20;1.00;;;;;;5070731;28;20215;-57
2021/06/27 07:31:10;;;;;;;13.77;12.67;;;24.30;1.00;;;;;;5071086;28;20429;-58
2021/06/27 07:33:36;;;;;;;14.23;12.30;;;24.40;1.00;;;;;;5069874;28;20320;-59
2021/06/27 07:36:01;;;;;;;14.07;12.70;;;24.50;1.00;;;;;;5071865;28;20248;-56
2021/06/27 07:38:27;;;;;;;14.10;12.90;;;24.60;1.00;;;;;;5072096;28;20528;-58
2021/06/27 07:40:52;;;;;;;13.37;12.37;;;24.70;1.00;;;;;;5072636;28;20230;-57
2021/06/27 07:43:18;;;;;;;12.27;11.37;;;24.70;1.00;;;;;;5072174;28;20544;-58
2021/06/27 07:45:44;;;;;;;13.77;12.67;;;24.80;1.00;;;;;;5072100;28;20691;-59
2021/06/27 07:48:10;;;;;;;12.60;11.50;;;25.00;1.00;;;;;;5071339;28;20182;-59
2021/06/27 07:50:36;;;;;;;13.87;12.83;;;24.90;1.00;;;;;;5070639;28;20449;-58
2021/06/27 07:53:01;;;;;;;15.50;14.20;;;25.00;1.00;;;;;;5072223;28;20180;-58
2021/06/27 07:55:27;;;;;;;13.40;12.20;;;25.10;1.00;;;;;;5069971;28;20191;-57
2021/06/27 07:57:52;;;;;;;14.27;13.10;;;25.40;1.00;;;;;;5072096;28;20192;-58
2021/06/27 08:00:19;;;;;;;15.37;13.83;;;25.40;1.00;;;;;;5071515;28;20194;-57
2021/06/27 08:02:44;;;;;;;12.53;11.43;;;25.40;1.00;;;;;;5071934;28;20179;-58
2021/06/27 08:05:10;;;;;;;15.90;14.50;;;25.50;1.00;;;;;;5071015;28;20453;-57
2021/06/27 08:07:36;;;;;;;14.17;12.73;;;25.80;1.00;;;;;;5070311;28;20211;-58
2021/06/27 08:10:04;;;;;;;13.77;12.50;;;25.60;1.00;;;;;;5071597;28;20476;-59
2021/06/27 08:12:31;;;;;;;13.13;12.03;;;25.80;1.00;;;;;;5071063;28;20237;-61
2021/06/27 08:14:57;;;;;;;13.30;12.30;;;25.90;1.00;;;;;;5071113;28;20808;-59
2021/06/27 08:17:23;;;;;;;12.63;11.53;;;25.80;1.00;;;;;;5071301;28;20440;-59
2021/06/27 08:19:48;;;;;;;13.70;12.30;;;25.90;1.00;;;;;;5071035;28;20179;-59
2021/06/27 08:22:14;;;;;;;12.40;11.30;;;26.10;1.00;;;;;;5071615;28;20254;-59
2021/06/27 08:24:40;;;;;;;12.30;11.30;;;26.10;1.00;;;;;;5071241;28;20180;-59
2021/06/27 08:27:07;;;;;;;10.93;10.13;;;26.10;1.00;;;;;;5070758;28;20206;-59
2021/06/27 08:29:32;;;;;;;10.80;9.80;;;26.10;1.00;;;;;;5070919;28;20514;-58
2021/06/27 08:31:58;;;;;;;10.77;9.87;;;26.20;1.00;;;;;;5071184;28;20607;-58
2021/06/27 08:34:24;;;;;;;11.50;10.70;;;26.40;1.00;;;;;;5070757;28;20720;-60
2021/06/27 08:36:49;;;;;;;11.80;10.90;;;26.30;1.00;;;;;;5071082;28;20188;-60
2021/06/27 08:39:15;;;;;;;11.97;11.10;;;26.20;1.00;;;;;;5071005;28;20314;-60
2021/06/27 08:41:41;;;;;;;10.00;9.17;;;26.50;1.00;;;;;;5070660;28;20195;-59
2021/06/27 08:44:07;;;;;;;12.70;11.57;;;26.70;1.00;;;;;;5071019;28;20195;-60
2021/06/27 08:46:36;;;;;;;12.57;11.57;;;26.90;1.00;;;;;;5070949;28;20827;-59
2021/06/27 08:49:03;;;;;;;11.80;10.90;;;27.20;1.00;;;;;;5070701;28;20694;-58
2021/06/27 08:51:36;;;;;;;13.23;12.00;;;27.40;1.00;;;;;;5070799;28;20412;-60
2021/06/27 08:54:02;;;;;;;10.97;10.07;;;27.50;1.00;;;;;;5070516;28;20438;-59
2021/06/27 08:56:27;;;;;;;10.40;9.60;;;27.40;1.00;;;;;;5069035;28;20460;-59
2021/06/27 08:58:53;;;;;;;9.90;9.10;;;27.60;1.00;;;;;;5070051;28;20179;-60
2021/06/27 09:01:21;;;;;;;9.40;8.60;;;27.80;1.00;;;;;;5070344;28;20218;-60
2021/06/27 09:03:48;;;;;;;7.67;6.80;;;27.70;1.00;;;;;;5070315;28;20656;-59
2021/06/27 09:06:36;;;;;;;7.43;6.83;;;27.40;1.00;;;;;;5070168;28;20500;-58
2021/06/27 09:09:14;;;;;;;7.80;7.10;;;27.30;1.00;;;;;;5070072;28;20509;-58
2021/06/27 09:11:57;;;;;;;7.07;6.47;;;26.90;1.00;;;;;;5070368;28;20408;-60
2021/06/27 09:14:33;;;;;;;6.43;5.83;;;27.10;1.00;;;;;;5071081;28;20476;-59
2021/06/27 09:17:19;;;;;;;7.23;6.60;;;27.10;1.00;;;;;;5069542;28;20456;-60
2021/06/27 09:19:57;;;;;;;6.00;5.60;;;27.00;1.00;;;;;;5070711;28;20425;-61
2021/06/27 09:22:29;;;;;;;6.40;5.80;;;27.10;1.00;;;;;;5069784;28;20401;-60
2021/06/27 09:25:18;;;;;;;6.30;5.90;;;27.50;1.00;;;;;;5070277;28;20522;-58
2021/06/27 09:27:45;;;;;;;6.43;5.93;;;27.90;1.00;;;;;;5069131;28;20495;-58
2021/06/27 09:30:21;;;;;;;5.53;5.03;;;27.80;1.00;;;;;;5068893;28;20469;-59
2021/06/27 09:32:52;;;;;;;5.87;5.47;;;27.90;1.00;;;;;;5070970;28;20494;-58
2021/06/27 09:35:39;;;;;;;6.43;5.63;;;28.20;1.00;;;;;;5070183;28;20464;-60
2021/06/27 09:38:52;;;;;;;5.60;5.10;;;28.40;1.00;;;;;;5070007;28;20494;-59
2021/06/27 09:41:29;;;;;;;6.83;5.60;;;28.50;1.00;;;;;;5065174;28;20423;-58
2021/06/27 09:44:15;;;;;;;5.27;4.83;;;28.50;1.00;;;;;;5069699;28;21023;-59
2021/06/27 09:46:44;;;;;;;6.40;5.90;;;28.20;1.00;;;;;;5066444;28;20955;-60
2021/06/27 09:49:18;;;;;;;6.10;5.50;;;28.20;1.00;;;;;;5069735;28;20445;-59
2021/06/27 09:51:50;;;;;;;7.80;7.10;;;28.20;1.00;;;;;;5069665;28;20446;-59
2021/06/27 09:54:21;;;;;;;5.60;5.20;;;28.30;1.00;;;;;;5069587;28;20436;-60
2021/06/27 09:56:47;;;;;;;6.43;5.90;;;28.30;1.00;;;;;;5069723;28;20469;-59
2021/06/27 09:59:15;;;;;;;5.70;5.20;;;28.00;1.00;;;;;;5069632;28;20990;-58
2021/06/27 10:01:42;;;;;;;4.97;4.67;;;27.60;1.00;;;;;;5069285;28;20799;-60
2021/06/27 10:04:11;;;;;;;5.17;4.77;;;27.60;1.00;;;;;;5070052;28;20524;-58
2021/06/27 10:06:51;;;;;;;5.73;5.13;;;27.80;1.00;;;;;;5067402;28;20544;-60
2021/06/27 10:09:20;;;;;;;5.60;5.10;;;27.80;1.00;;;;;;5068510;28;20429;-61
2021/06/27 10:12:22;;;;;;;6.03;5.53;;;27.80;1.00;;;;;;5068453;28;20520;-60
2021/06/27 10:14:52;;;;;;;5.00;4.60;;;27.90;1.00;;;;;;5068487;28;20447;-60
2021/06/27 10:17:20;;;;;;;5.23;4.70;;;27.90;1.00;;;;;;5068173;28;20425;-59
2021/06/27 10:19:46;;;;;;;5.07;4.67;;;28.00;1.00;;;;;;5068866;28;20434;-62
2021/06/27 10:22:12;;;;;;;8.73;5.57;;;28.10;1.00;;;;;;5068844;28;20429;-59
2021/06/27 10:24:38;;;;;;;5.53;5.13;;;28.10;1.00;;;;;;5068701;28;20436;-59
2021/06/27 10:27:05;;;;;;;5.40;5.00;;;28.50;1.00;;;;;;5069047;28;20430;-59
2021/06/27 10:29:32;;;;;;;4.27;3.97;;;28.90;1.00;;;;;;5068640;28;20328;-60
2021/06/27 10:31:57;;;;;;;4.60;4.17;;;28.90;1.00;;;;;;5068726;28;20433;-60
2021/06/27 10:34:24;;;;;;;4.93;4.43;;;28.90;1.00;;;;;;5071935;28;20428;-59
2021/06/27 10:37:09;;;;;;;4.70;4.30;;;29.10;1.00;;;;;;5071155;28;20188;-57
2021/06/27 10:39:35;;;;;;;5.00;4.50;;;29.50;1.00;;;;;;5072802;28;21083;-60
2021/06/27 10:42:03;;;;;;;4.40;4.10;;;29.50;1.00;;;;;;5071823;28;20419;-59
2021/06/27 10:44:49;;;;;;;4.90;4.53;;;29.40;1.00;;;;;;5072828;28;20441;-59
2021/06/27 10:47:32;;;;;;;4.13;3.73;;;29.40;1.00;;;;;;5071929;28;20532;-58
2021/06/27 10:49:58;;;;;;;5.23;4.77;;;29.50;1.00;;;;;;5072686;28;20436;-60
2021/06/27 10:52:24;;;;;;;4.37;4.07;;;29.60;1.00;;;;;;5072363;28;20472;-58
2021/06/27 10:55:20;;;;;;;5.70;5.13;;;29.60;1.00;;;;;;5071162;28;20924;-58
2021/06/27 10:58:10;;;;;;;4.47;4.17;;;29.80;1.00;;;;;;5072810;28;20184;-57
2021/06/27 11:00:57;;;;;;;4.83;4.53;;;30.10;1.00;;;;;;5072566;28;20909;-60
2021/06/27 11:03:44;;;;;;;4.90;4.50;;;30.50;1.00;;;;;;5069743;28;20465;-59
2021/06/27 11:06:12;;;;;;;4.90;4.47;;;30.40;1.00;;;;;;5072414;28;20461;-59
2021/06/27 11:08:42;;;;;;;4.73;4.43;;;30.30;1.00;;;;;;5072312;28;20875;-58
2021/06/27 11:11:07;;;;;;;4.93;4.57;;;30.00;1.00;;;;;;5072509;28;20904;-60
2021/06/27 11:13:33;;;;;;;4.57;4.27;;;30.00;1.00;;;;;;5072315;28;20412;-58
2021/06/27 11:16:04;;;;;;;5.13;4.73;;;29.90;1.00;;;;;;5070974;28;20225;-60
2021/06/27 11:18:44;;;;;;;5.13;4.83;;;29.80;1.00;;;;;;5072608;28;20412;-59
2021/06/27 11:21:16;;;;;;;4.90;4.30;;;30.00;1.00;;;;;;5072767;28;20441;-60
2021/06/27 11:23:47;;;;;;;4.70;4.40;;;29.70;1.00;;;;;;5072256;28;20435;-60
2021/06/27 11:26:41;;;;;;;5.40;5.10;;;29.50;1.00;;;;;;5072604;28;20431;-59
2021/06/27 11:29:21;;;;;;;4.50;4.20;;;29.50;1.00;;;;;;5072170;28;20807;-58
2021/06/27 11:31:48;;;;;;;4.20;3.90;;;29.50;1.00;;;;;;5071773;28;20445;-58
2021/06/27 11:34:20;;;;;;;5.57;3.90;;;29.60;1.00;;;;;;5072015;28;20531;-60
2021/06/27 11:36:46;;;;;;;4.00;3.70;;;29.60;1.00;;;;;;5071669;28;20430;-59
2021/06/27 11:39:48;;;;;;;4.67;4.37;;;29.70;1.00;;;;;;5072076;28;20414;-58
2021/06/27 11:42:26;;;;;;;4.70;4.40;;;29.60;1.00;;;;;;5071808;28;20446;-58
2021/06/27 11:45:04;;;;;;;4.03;3.60;;;29.50;1.00;;;;;;5071417;28;20553;-59
2021/06/27 11:47:30;;;;;;;4.30;4.00;;;29.60;1.00;;;;;;5072486;28;20401;-57
2021/06/27 11:49:56;;;;;;;4.67;4.20;;;29.60;1.00;;;;;;5072106;28;20947;-59
2021/06/27 11:52:22;;;;;;;4.63;4.23;;;29.40;1.00;;;;;;5071980;28;20449;-60
2021/06/27 11:54:49;;;;;;;4.07;3.57;;;29.30;1.00;;;;;;5070592;28;20191;-58
2021/06/27 11:57:15;;;;;;;4.53;4.23;;;29.10;1.00;;;;;;5071829;28;20660;-59
2021/06/27 11:59:53;;;;;;;3.90;3.60;;;29.10;1.00;;;;;;5071344;28;20449;-59
2021/06/27 12:02:22;;;;;;;4.70;4.30;;;28.90;1.00;;;;;;5069471;28;20412;-60
2021/06/27 12:04:52;;;;;;;3.10;2.80;;;29.10;1.00;;;;;;5071078;28;20934;-58
2021/06/27 12:07:27;;;;;;;4.13;3.73;;;28.90;1.00;;;;;;5067455;28;20441;-59
2021/06/27 12:09:53;;;;;;;3.83;3.53;;;29.20;1.00;;;;;;5070106;28;20415;-59
2021/06/27 12:12:58;;;;;;;4.00;3.70;;;29.40;1.00;;;;;;5071297;28;20411;-59
2021/06/27 12:15:47;;;;;;;4.07;3.77;;;29.30;1.00;;;;;;5070961;28;20412;-58
2021/06/27 12:18:26;;;;;;;3.90;3.60;;;29.30;1.00;;;;;;5071198;28;20498;-58
2021/06/27 12:20:56;;;;;;;5.90;4.30;;;29.20;1.00;;;;;;5067946;28;20482;-58
2021/06/27 12:23:49;;;;;;;4.30;3.90;;;29.30;1.00;;;;;;5071297;28;20487;-59
2021/06/27 12:26:16;;;;;;;4.50;4.20;;;29.60;1.00;;;;;;5070346;28;20440;-58
2021/06/27 12:28:50;;;;;;;4.60;4.20;;;29.60;1.00;;;;;;5071031;28;20983;-59
2021/06/27 12:31:29;;;;;;;4.40;4.10;;;29.30;1.00;;;;;;5071167;28;20775;-59
2021/06/27 12:34:00;;;;;;;4.20;3.90;;;29.30;1.00;;;;;;5071326;28;20411;-59
2021/06/27 12:36:29;;;;;;;4.63;4.33;;;29.50;1.00;;;;;;5071017;28;20441;-59
2021/06/27 12:39:00;;;;;;;5.63;5.23;;;29.50;1.00;;;;;;5071347;28;20438;-58
2021/06/27 12:41:30;;;;;;;4.67;4.33;;;29.30;1.00;;;;;;5070788;28;20440;-59
2021/06/27 12:43:57;;;;;;;4.53;4.13;;;29.30;1.00;;;;;;5071452;28;20882;-59
2021/06/27 12:46:27;;;;;;;4.10;3.80;;;29.60;1.00;;;;;;5070897;28;20505;-60
2021/06/27 12:49:02;;;;;;;4.87;4.47;;;29.90;1.00;;;;;;5071035;28;20421;-60
2021/06/27 12:51:33;;;;;;;3.80;3.50;;;30.00;1.00;;;;;;5070862;28;20461;-61